ADDS METAR Data INFO
IDs: Format: Raw Decoded Include TAF

Data at: 1312 UTC 11 Dec 2017

KPWM 111251Z 23005G14KT 10SM OVC085 00/M05 A2991 RMK AO2 SLP130 T00001050
KPWM 111151Z 22007KT 10SM OVC090 M01/M05 A2991 RMK AO2 SLP129 T10061050 10000 21011 53007 $
KPWM 111051Z 21010G17KT 10SM OVC095 00/M05 A2990 RMK AO2 SLP125 T00001050 $
KPWM 110951Z 24014KT 10SM OVC095 M01/M05 A2989 RMK AO2 SLP121 T10061050 $
KPWM 110851Z AUTO 22010KT 10SM OVC090 M01/M05 A2989 RMK AO2 SLP121 T10061050 58006 $
KPWM 110751Z AUTO 22010G16KT 10SM OVC095 M01/M05 A2989 RMK AO2 SLP123 T10061050 $
KPWM 110651Z AUTO 22013KT 10SM FEW060 OVC110 M01/M05 A2991 RMK AO2 SLP128 T10111050 $
KPWM 110551Z AUTO 22011G15KT 10SM BKN065 OVC120 M01/M06 A2990 RMK AO2 SLP127 T10111056 10000 21017 50003 $
KPWM 110451Z 21009G17KT 10SM OVC065 M01/M06 A2991 RMK AO2 SLP129 LAST T10111061 400281033 $
KPWM 110351Z 22009KT 10SM OVC070 M01/M06 A2990 RMK AO2 SLP127 T10111061 $
KPWM 110251Z 22011KT 10SM CLR M02/M06 A2989 RMK AO2 SLP124 T10171061 51011 $
KPWM 110151Z 00000KT 10SM OVC120 M01/M05 A2989 RMK AO2 SLP121 T10111050 $
KPWM 110051Z 20005KT 10SM CLR M01/M05 A2988 RMK AO2 SLP118 T10061050 $
KPWM 102351Z 21005KT 10SM SCT050 OVC060 00/M05 A2986 RMK AO2 SLP113 T00001050 10028 20000 51029 $
KPWM 102251Z 21006KT 10SM SCT055 00/M05 A2983 RMK AO2 SLP104 T00001050 $
KPWM 102151Z 22003KT 10SM FEW040 00/M05 A2980 RMK AO2 SLP093 T00001050 $
KPWM 102051Z 24013KT 10SM FEW040 02/M06 A2977 RMK AO2 SLP083 T00171056 53024 $
KPWM 101951Z 24013KT 10SM SCT037 02/M05 A2975 RMK AO2 SLP075 T00221050 $
KPWM 101851Z 25011G19KT 10SM SCT035 02/M04 A2972 RMK AO2 SLP065 T00221044 $
KPWM 101751Z 24012G19KT 10SM FEW035 03/M03 A2970 RMK AO2 SLP059 T00281033 10028 21033 55001 $
KPWM 101651Z 26007KT 10SM CLR 02/M03 A2970 RMK AO2 SLP058 T00171028 $
KPWM 101551Z 25008KT 10SM FEW150 01/M03 A2970 RMK AO2 SLP059 T00111033 $
KPWM 101451Z 26008KT 10SM FEW090 SCT110 M01/M03 A2971 RMK AO2 SLP060 T10061028 51024 $
KPWM 101351Z 21009KT 10SM BKN150 M01/M03 A2968 RMK AO2 SLP053 T10111028 $
KPWM 101251Z 24009KT 10SM SCT045 M03/M03 A2966 RMK AO2 SLP046 T10281033 $
KPWM 101151Z 24004KT 9SM FEW032 BKN046 OVC110 M02/M02 A2963 RMK AO2 SLP036 60001 70051 T10171022 11011 21017 53011 $
KPWM 101051Z 24009KT 10SM FEW048 BKN090 BKN110 M02/M03 A2961 RMK AO2 SLP029 T10171028 $
KPWM 100951Z 26008KT 220V290 9SM BKN044 OVC070 M02/M02 A2960 RMK AO2 SNB19E48 SLP025 P0000 T10171022 $
KPWM 100851Z AUTO 27009KT 250V310 10SM SCT065 OVC100 M02/M03 A2960 RMK AO2 SLP025 60001 T10171028 53001 $
KPWM 100751Z AUTO VRB05KT 10SM OVC095 M01/M03 A2959 RMK AO2 SNE13 SLP021 P0000 T10111028 $
KPWM 100651Z AUTO VRB06KT 7SM -SN FEW019 OVC080 M01/M03 A2960 RMK AO2 SLP025 P0001 T10111028 $
KPWM 100646Z AUTO 34007KT 5SM -SN BR SCT019 BKN075 OVC090 M02/M03 A2960 RMK AO2 P0001 $
KPWM 100633Z AUTO VRB06KT 2SM -SN BR SCT019 BKN042 OVC070 M02/M02 A2959 RMK AO2 P0001 T10171022 $
KPWM 100629Z AUTO VRB05KT 1 3/4SM -SN BR BKN019 OVC042 M02/M02 A2960 RMK AO2 P0001 T10171022 $
KPWM 100623Z AUTO VRB04KT 2SM -SN BR FEW011 SCT019 OVC042 M02/M03 A2961 RMK AO2 P0001 T10171028 $
KPWM 100551Z AUTO 32007KT 3SM -SN BR OVC038 M01/M03 A2961 RMK AO2 SLP028 P0001 60024 T10111028 11011 21017 56014 $
KPWM 100517Z AUTO 34009G15KT 3SM -SN BR BKN030 OVC035 M01/M03 A2960 RMK AO2 P0001 T10111028 $
KPWM 100508Z AUTO 33008KT 2SM -SN BR FEW012 BKN021 OVC035 M01/M03 A2962 RMK AO2 P0000 T10111028 $
KPWM 100451Z COR 34009KT 1 1/4SM -SN BR SCT008 OVC013 M01/M02 A2962 RMK AO2 SLP030 LAST P0002 T10111022 400221017 $
KPWM 100407Z 35012KT 1 1/4SM -SN BR SCT008 BKN013 OVC025 M01/M02 A2962 RMK AO2 PRESFR P0001 T10111022 $
KPWM 100351Z 35010KT 1 1/4SM -SN BR BKN009 BKN014 OVC019 M01/M02 A2964 RMK AO2 SLP039 P0002 T10111022 $
KPWM 100305Z 36008KT 1 1/4SM -SN BR FEW005 BKN008 OVC014 M01/M02 A2966 RMK AO2 P0000 T10111022 $
KPWM 100251Z 36010KT 3/4SM -SN BR BKN007 OVC013 M02/M02 A2965 RMK AO2 SLP043 P0004 60019 T10171022 58034 $
KPWM 100151Z 36011G16KT 3/4SM -SN BR BKN006 OVC010 M01/M02 A2969 RMK AO2 SLP056 P0007 T10111017 $